sensor_id;sensor_type;location;lat;lon;timestamp;pressure;altitude;pressure_sealevel;temperature;humidity
14269;BME280;7218;51.480;7.006;2023-05-01T00:01:39;100707.81;;;11.01;85.52
14269;BME280;7218;51.480;7.006;2023-05-01T00:04:05;100702.66;;;10.98;85.58
14269;BME280;7218;51.480;7.006;2023-05-01T00:06:32;100700.03;;;11.00;85.29
14269;BME280;7218;51.480;7.006;2023-05-01T00:09:00;100697.44;;;11.00;85.02
14269;BME280;7218;51.480;7.006;2023-05-01T00:11:26;100695.78;;;10.91;85.80
14269;BME280;7218;51.480;7.006;2023-05-01T00:13:53;100688.00;;;10.90;85.87
14269;BME280;7218;51.480;7.006;2023-05-01T00:16:19;100682.94;;;10.79;86.42
14269;BME280;7218;51.480;7.006;2023-05-01T00:18:46;100687.28;;;10.80;85.45
14269;BME280;7218;51.480;7.006;2023-05-01T00:21:12;100678.59;;;10.78;86.61
14269;BME280;7218;51.480;7.006;2023-05-01T00:23:38;100673.44;;;10.73;86.47
14269;BME280;7218;51.480;7.006;2023-05-01T00:26:06;100670.84;;;10.72;86.38
14269;BME280;7218;51.480;7.006;2023-05-01T00:28:33;100663.22;;;10.57;87.08
14269;BME280;7218;51.480;7.006;2023-05-01T00:30:59;100662.28;;;10.62;87.88
14269;BME280;7218;51.480;7.006;2023-05-01T00:33:26;100664.16;;;10.51;87.83
14269;BME280;7218;51.480;7.006;2023-05-01T00:35:52;100658.22;;;10.42;88.77
14269;BME280;7218;51.480;7.006;2023-05-01T00:38:20;100649.56;;;10.40;88.39
14269;BME280;7218;51.480;7.006;2023-05-01T00:40:48;100655.84;;;10.23;89.77
14269;BME280;7218;51.480;7.006;2023-05-01T00:43:16;100643.63;;;10.28;89.72
14269;BME280;7218;51.480;7.006;2023-05-01T00:45:44;100647.16;;;10.26;89.11
14269;BME280;7218;51.480;7.006;2023-05-01T00:48:11;100644.53;;;10.26;88.99
14269;BME280;7218;51.480;7.006;2023-05-01T00:50:37;100641.16;;;10.18;90.23
14269;BME280;7218;51.480;7.006;2023-05-01T00:53:04;100635.88;;;10.22;89.23
14269;BME280;7218;51.480;7.006;2023-05-01T00:55:31;100634.19;;;10.18;89.73
14269;BME280;7218;51.480;7.006;2023-05-01T00:57:59;100626.38;;;10.17;89.88
14269;BME280;7218;51.480;7.006;2023-05-01T01:00:28;100625.44;;;10.22;89.06
14269;BME280;7218;51.480;7.006;2023-05-01T01:02:55;100624.66;;;10.13;89.97
14269;BME280;7218;51.480;7.006;2023-05-01T01:05:24;100625.44;;;10.22;89.74
14269;BME280;7218;51.480;7.006;2023-05-01T01:07:58;100617.63;;;10.25;90.03
14269;BME280;7218;51.480;7.006;2023-05-01T01:10:35;100616.69;;;10.26;90.71
14269;BME280;7218;51.480;7.006;2023-05-01T01:13:10;100601.91;;;10.28;90.54
14269;BME280;7218;51.480;7.006;2023-05-01T01:15:43;100602.72;;;10.33;90.90
14269;BME280;7218;51.480;7.006;2023-05-01T01:18:13;100600.84;;;10.42;90.01
14269;BME280;7218;51.480;7.006;2023-05-01T01:20:45;100602.56;;;10.46;89.99
14269;BME280;7218;51.480;7.006;2023-05-01T01:26:50;100601.66;;;10.47;88.84
14269;BME280;7218;51.480;7.006;2023-05-01T01:29:39;100600.72;;;10.54;88.88
14269;BME280;7218;51.480;7.006;2023-05-01T01:32:24;100598.91;;;10.59;88.62
14269;BME280;7218;51.480;7.006;2023-05-01T01:35:02;100598.91;;;10.57;88.58
14269;BME280;7218;51.480;7.006;2023-05-01T01:37:31;100594.56;;;10.56;88.54
14269;BME280;7218;51.480;7.006;2023-05-01T01:40:09;100597.94;;;10.64;88.83
14269;BME280;7218;51.480;7.006;2023-05-01T01:42:39;100593.56;;;10.66;88.42
14269;BME280;7218;51.480;7.006;2023-05-01T01:45:10;100586.63;;;10.65;87.98
14269;BME280;7218;51.480;7.006;2023-05-01T01:47:41;100596.22;;;10.63;88.29
14269;BME280;7218;51.480;7.006;2023-05-01T01:50:10;100585.72;;;10.68;87.66
14269;BME280;7218;51.480;7.006;2023-05-01T01:52:41;100586.56;;;10.70;87.86
14269;BME280;7218;51.480;7.006;2023-05-01T01:55:11;100587.38;;;10.73;87.11
14269;BME280;7218;51.480;7.006;2023-05-01T01:57:39;100574.41;;;10.69;86.83
14269;BME280;7218;51.480;7.006;2023-05-01T02:00:09;100572.63;;;10.71;86.86
14269;BME280;7218;51.480;7.006;2023-05-01T02:02:37;100570.00;;;10.71;87.30
14269;BME280;7218;51.480;7.006;2023-05-01T02:05:06;100563.09;;;10.68;87.96
14269;BME280;7218;51.480;7.006;2023-05-01T02:07:36;100568.31;;;10.70;87.38
14269;BME280;7218;51.480;7.006;2023-05-01T02:10:05;100563.97;;;10.69;87.26
14269;BME280;7218;51.480;7.006;2023-05-01T02:12:34;100558.75;;;10.70;87.58
14269;BME280;7218;51.480;7.006;2023-05-01T02:15:02;100554.28;;;10.77;87.94
14269;BME280;7218;51.480;7.006;2023-05-01T02:17:33;100549.84;;;10.82;87.64
14269;BME280;7218;51.480;7.006;2023-05-01T02:20:02;100545.50;;;10.83;87.27
14269;BME280;7218;51.480;7.006;2023-05-01T02:22:30;100542.09;;;10.77;86.73
14269;BME280;7218;51.480;7.006;2023-05-01T02:24:59;100549.06;;;10.77;86.61
14269;BME280;7218;51.480;7.006;2023-05-01T02:27:30;100534.28;;;10.76;86.14
14269;BME280;7218;51.480;7.006;2023-05-01T02:29:57;100534.34;;;10.73;86.78
14269;BME280;7218;51.480;7.006;2023-05-01T02:32:24;100530.09;;;10.67;87.12
14269;BME280;7218;51.480;7.006;2023-05-01T02:34:52;100527.44;;;10.70;87.36
14269;BME280;7218;51.480;7.006;2023-05-01T02:37:19;100535.91;;;10.83;88.16
14269;BME280;7218;51.480;7.006;2023-05-01T02:39:46;100524.69;;;10.79;88.47
14269;BME280;7218;51.480;7.006;2023-05-01T02:42:15;100521.22;;;10.77;88.44
14269;BME280;7218;51.480;7.006;2023-05-01T02:44:46;100522.19;;;10.72;89.01
14269;BME280;7218;51.480;7.006;2023-05-01T02:47:17;100522.19;;;10.72;88.35
14269;BME280;7218;51.480;7.006;2023-05-01T02:49:46;100517.84;;;10.71;88.66
14269;BME280;7218;51.480;7.006;2023-05-01T02:52:14;100510.09;;;10.68;88.86
14269;BME280;7218;51.480;7.006;2023-05-01T02:54:42;100506.63;;;10.67;89.26
14269;BME280;7218;51.480;7.006;2023-05-01T02:57:09;100507.50;;;10.66;89.78
14269;BME280;7218;51.480;7.006;2023-05-01T02:59:37;100493.47;;;10.73;89.25
14269;BME280;7218;51.480;7.006;2023-05-01T03:02:05;100504.88;;;10.68;89.77
14269;BME280;7218;51.480;7.006;2023-05-01T03:04:31;100487.50;;;10.67;90.00
14269;BME280;7218;51.480;7.006;2023-05-01T03:06:58;100489.34;;;10.60;89.77
14269;BME280;7218;51.480;7.006;2023-05-01T03:09:25;100482.44;;;10.58;89.93
14269;BME280;7218;51.480;7.006;2023-05-01T03:11:51;100490.28;;;10.56;90.30
14269;BME280;7218;51.480;7.006;2023-05-01T03:14:18;100489.44;;;10.56;89.83
14269;BME280;7218;51.480;7.006;2023-05-01T03:16:45;100482.41;;;10.61;90.33
14269;BME280;7218;51.480;7.006;2023-05-01T03:19:12;100491.09;;;10.60;90.03
14269;BME280;7218;51.480;7.006;2023-05-01T03:21:39;100479.88;;;10.55;90.11
14269;BME280;7218;51.480;7.006;2023-05-01T03:24:05;100472.88;;;10.58;89.40
14269;BME280;7218;51.480;7.006;2023-05-01T03:26:32;100468.59;;;10.53;89.92
14269;BME280;7218;51.480;7.006;2023-05-01T03:28:59;100460.88;;;10.47;89.91
14269;BME280;7218;51.480;7.006;2023-05-01T03:31:25;100473.97;;;10.45;90.42
14269;BME280;7218;51.480;7.006;2023-05-01T03:33:53;100476.50;;;10.50;90.37
14269;BME280;7218;51.480;7.006;2023-05-01T03:36:20;100462.81;;;10.35;90.86
14269;BME280;7218;51.480;7.006;2023-05-01T03:38:47;100464.50;;;10.38;90.50
14269;BME280;7218;51.480;7.006;2023-05-01T03:41:13;100455.91;;;10.31;90.67
14269;BME280;7218;51.480;7.006;2023-05-01T03:43:41;100459.38;;;10.32;90.65
14269;BME280;7218;51.480;7.006;2023-05-01T03:46:07;100455.03;;;10.32;91.26
14269;BME280;7218;51.480;7.006;2023-05-01T03:48:34;100454.31;;;10.23;91.70
14269;BME280;7218;51.480;7.006;2023-05-01T03:51:02;100453.28;;;10.31;91.28
14269;BME280;7218;51.480;7.006;2023-05-01T03:53:29;100445.59;;;10.24;91.42
14269;BME280;7218;51.480;7.006;2023-05-01T03:55:56;100449.06;;;10.26;91.81
14269;BME280;7218;51.480;7.006;2023-05-01T03:58:23;100449.09;;;10.24;92.17
14269;BME280;7218;51.480;7.006;2023-05-01T04:00:50;100443.19;;;10.10;93.37
14269;BME280;7218;51.480;7.006;2023-05-01T04:03:16;100444.00;;;10.14;93.51
14269;BME280;7218;51.480;7.006;2023-05-01T04:05:43;100441.34;;;10.17;91.91
14269;BME280;7218;51.480;7.006;2023-05-01T04:08:11;100441.38;;;10.15;91.60
14269;BME280;7218;51.480;7.006;2023-05-01T04:10:37;100448.41;;;10.10;91.57
14269;BME280;7218;51.480;7.006;2023-05-01T04:13:04;100444.94;;;10.08;92.28
14269;BME280;7218;51.480;7.006;2023-05-01T04:15:31;100443.25;;;10.06;92.30
14269;BME280;7218;51.480;7.006;2023-05-01T04:17:57;100441.56;;;10.02;92.50
14269;BME280;7218;51.480;7.006;2023-05-01T04:20:24;100440.66;;;10.04;92.78
14269;BME280;7218;51.480;7.006;2023-05-01T04:22:50;100428.56;;;10.00;93.50
14269;BME280;7218;51.480;7.006;2023-05-01T04:25:18;100438.94;;;10.02;93.64
14269;BME280;7218;51.480;7.006;2023-05-01T04:27:45;100439.88;;;9.99;94.14
14269;BME280;7218;51.480;7.006;2023-05-01T04:30:11;100430.31;;;10.00;94.08
14269;BME280;7218;51.480;7.006;2023-05-01T04:32:38;100431.19;;;9.97;94.05
14269;BME280;7218;51.480;7.006;2023-05-01T04:35:05;100425.94;;;10.02;93.57
14269;BME280;7218;51.480;7.006;2023-05-01T04:37:32;100426.84;;;9.98;93.94
14269;BME280;7218;51.480;7.006;2023-05-01T04:39:59;100428.53;;;10.02;94.63
14269;BME280;7218;51.480;7.006;2023-05-01T04:42:30;100431.03;;;10.09;94.36
14269;BME280;7218;51.480;7.006;2023-05-01T04:44:57;100425.91;;;10.03;94.09
14269;BME280;7218;51.480;7.006;2023-05-01T04:47:25;100431.97;;;10.05;94.05
14269;BME280;7218;51.480;7.006;2023-05-01T04:49:52;100431.06;;;10.06;94.04
14269;BME280;7218;51.480;7.006;2023-05-01T04:52:18;100425.97;;;9.99;94.53
14269;BME280;7218;51.480;7.006;2023-05-01T04:54:45;100428.50;;;10.03;94.61
14269;BME280;7218;51.480;7.006;2023-05-01T04:57:11;100434.47;;;10.11;93.79
14269;BME280;7218;51.480;7.006;2023-05-01T04:59:39;100429.16;;;10.20;93.46
14269;BME280;7218;51.480;7.006;2023-05-01T05:02:06;100431.78;;;10.19;92.93
14269;BME280;7218;51.480;7.006;2023-05-01T05:04:33;100430.91;;;10.20;92.96
14269;BME280;7218;51.480;7.006;2023-05-01T05:06:59;100430.06;;;10.18;93.66
14269;BME280;7218;51.480;7.006;2023-05-01T05:09:26;100423.97;;;10.17;93.00
14269;BME280;7218;51.480;7.006;2023-05-01T05:11:52;100426.50;;;10.23;93.43
14269;BME280;7218;51.480;7.006;2023-05-01T05:14:19;100426.44;;;10.28;93.17
14269;BME280;7218;51.480;7.006;2023-05-01T05:16:47;100421.94;;;10.38;92.02
14269;BME280;7218;51.480;7.006;2023-05-01T05:19:13;100432.41;;;10.34;92.25
14269;BME280;7218;51.480;7.006;2023-05-01T05:21:40;100434.81;;;10.47;91.53
14269;BME280;7218;51.480;7.006;2023-05-01T05:24:06;100426.00;;;10.55;90.59
14269;BME280;7218;51.480;7.006;2023-05-01T05:26:33;100427.63;;;10.61;90.69
14269;BME280;7218;51.480;7.006;2023-05-01T05:28:59;100426.72;;;10.62;90.28
14269;BME280;7218;51.480;7.006;2023-05-01T05:31:26;100425.72;;;10.70;90.06
14269;BME280;7218;51.480;7.006;2023-05-01T05:33:53;100426.53;;;10.74;90.25
14269;BME280;7218;51.480;7.006;2023-05-01T05:36:20;100427.41;;;10.73;90.10
14269;BME280;7218;51.480;7.006;2023-05-01T05:38:46;100427.25;;;10.82;90.19
14269;BME280;7218;51.480;7.006;2023-05-01T05:41:13;100419.13;;;10.97;89.15
14269;BME280;7218;51.480;7.006;2023-05-01T05:43:40;100419.03;;;11.03;89.29
14269;BME280;7218;51.480;7.006;2023-05-01T05:46:06;100427.44;;;11.17;89.00
14269;BME280;7218;51.480;7.006;2023-05-01T05:48:33;100415.06;;;11.29;87.76
14269;BME280;7218;51.480;7.006;2023-05-01T05:51:01;100419.97;;;11.42;87.00
14269;BME280;7218;51.480;7.006;2023-05-01T05:53:27;100423.56;;;11.38;87.08
14269;BME280;7218;51.480;7.006;2023-05-01T05:55:54;100418.16;;;11.46;86.66
14269;BME280;7218;51.480;7.006;2023-05-01T05:58:20;100417.41;;;11.41;85.30
14269;BME280;7218;51.480;7.006;2023-05-01T06:00:48;100420.44;;;11.61;84.46
14269;BME280;7218;51.480;7.006;2023-05-01T06:03:17;100415.19;;;11.64;85.31
14269;BME280;7218;51.480;7.006;2023-05-01T06:05:44;100421.00;;;11.78;84.95
14269;BME280;7218;51.480;7.006;2023-05-01T06:08:12;100413.69;;;11.94;83.84
14269;BME280;7218;51.480;7.006;2023-05-01T06:10:41;100416.06;;;12.03;83.63
14269;BME280;7218;51.480;7.006;2023-05-01T06:13:08;100411.81;;;11.99;83.13
14269;BME280;7218;51.480;7.006;2023-05-01T06:15:35;100410.09;;;11.98;83.54
14269;BME280;7218;51.480;7.006;2023-05-01T06:18:02;100407.97;;;12.15;84.00
14269;BME280;7218;51.480;7.006;2023-05-01T06:20:29;100412.06;;;12.25;83.37
14269;BME280;7218;51.480;7.006;2023-05-01T06:22:56;100409.84;;;12.44;82.59
14269;BME280;7218;51.480;7.006;2023-05-01T06:25:24;100413.09;;;12.54;82.26
14269;BME280;7218;51.480;7.006;2023-05-01T06:27:51;100409.47;;;12.59;82.12
14269;BME280;7218;51.480;7.006;2023-05-01T06:30:18;100410.16;;;12.66;81.13
14269;BME280;7218;51.480;7.006;2023-05-01T06:32:45;100402.28;;;12.67;80.63
14269;BME280;7218;51.480;7.006;2023-05-01T06:35:12;100402.72;;;12.84;80.76
14269;BME280;7218;51.480;7.006;2023-05-01T06:37:39;100404.25;;;12.91;78.99
14269;BME280;7218;51.480;7.006;2023-05-01T06:40:07;100410.69;;;13.12;78.89
14269;BME280;7218;51.480;7.006;2023-05-01T06:42:36;100407.88;;;13.20;78.25
14269;BME280;7218;51.480;7.006;2023-05-01T06:45:04;100403.28;;;13.28;77.80
14269;BME280;7218;51.480;7.006;2023-05-01T06:47:31;100407.41;;;13.35;75.91
14269;BME280;7218;51.480;7.006;2023-05-01T06:49:57;100404.72;;;13.38;77.80
14269;BME280;7218;51.480;7.006;2023-05-01T06:52:24;100406.50;;;13.36;76.91
14269;BME280;7218;51.480;7.006;2023-05-01T06:54:50;100412.50;;;13.09;77.88
14269;BME280;7218;51.480;7.006;2023-05-01T06:57:17;100409.00;;;13.41;78.38
14269;BME280;7218;51.480;7.006;2023-05-01T06:59:45;100398.44;;;13.73;74.76
14269;BME280;7218;51.480;7.006;2023-05-01T07:02:11;100405.97;;;13.84;74.24
14269;BME280;7218;51.480;7.006;2023-05-01T07:04:37;100402.34;;;13.88;73.64
14269;BME280;7218;51.480;7.006;2023-05-01T07:07:04;100404.13;;;13.87;73.15
14269;BME280;7218;51.480;7.006;2023-05-01T07:09:30;100410.22;;;13.60;72.72
14269;BME280;7218;51.480;7.006;2023-05-01T07:11:57;100404.03;;;13.31;75.72
14269;BME280;7218;51.480;7.006;2023-05-01T07:14:23;100407.34;;;13.38;76.54
14269;BME280;7218;51.480;7.006;2023-05-01T07:16:51;100402.94;;;13.69;74.75
14269;BME280;7218;51.480;7.006;2023-05-01T07:19:18;100401.97;;;13.43;75.60
14269;BME280;7218;51.480;7.006;2023-05-01T07:21:44;100407.16;;;13.44;75.28
14269;BME280;7218;51.480;7.006;2023-05-01T07:24:11;100406.53;;;13.65;75.60
14269;BME280;7218;51.480;7.006;2023-05-01T07:26:37;100402.50;;;13.83;74.30
14269;BME280;7218;51.480;7.006;2023-05-01T07:29:04;100399.47;;;13.95;73.81
14269;BME280;7218;51.480;7.006;2023-05-01T07:31:30;100393.81;;;14.09;74.50
14269;BME280;7218;51.480;7.006;2023-05-01T07:33:58;100400.81;;;14.36;72.10
14269;BME280;7218;51.480;7.006;2023-05-01T07:36:25;100397.19;;;14.40;71.37
14269;BME280;7218;51.480;7.006;2023-05-01T07:38:51;100394.13;;;14.54;72.59
14269;BME280;7218;51.480;7.006;2023-05-01T07:41:18;100393.59;;;14.69;73.69
14269;BME280;7218;51.480;7.006;2023-05-01T07:43:44;100393.19;;;14.80;72.78
14269;BME280;7218;51.480;7.006;2023-05-01T07:46:10;100399.06;;;14.88;69.35
14269;BME280;7218;51.480;7.006;2023-05-01T07:48:37;100388.31;;;14.44;71.96
14269;BME280;7218;51.480;7.006;2023-05-01T07:51:05;100390.03;;;14.70;69.85
14269;BME280;7218;51.480;7.006;2023-05-01T07:53:32;100387.13;;;14.79;69.86
14269;BME280;7218;51.480;7.006;2023-05-01T07:56:04;100389.31;;;14.91;67.32
14269;BME280;7218;51.480;7.006;2023-05-01T07:58:31;100384.00;;;14.68;67.68
14269;BME280;7218;51.480;7.006;2023-05-01T08:00:59;100380.78;;;14.85;68.79
14269;BME280;7218;51.480;7.006;2023-05-01T08:03:26;100388.03;;;15.03;68.43
14269;BME280;7218;51.480;7.006;2023-05-01T08:05:53;100383.88;;;14.96;67.33
14269;BME280;7218;51.480;7.006;2023-05-01T08:08:21;100374.78;;;15.29;67.17
14269;BME280;7218;51.480;7.006;2023-05-01T08:10:47;100381.78;;;15.54;66.02
14269;BME280;7218;51.480;7.006;2023-05-01T08:13:14;100369.91;;;15.88;63.42
14269;BME280;7218;51.480;7.006;2023-05-01T08:15:41;100366.53;;;16.07;62.40
14269;BME280;7218;51.480;7.006;2023-05-01T08:18:07;100370.63;;;15.70;58.17
14269;BME280;7218;51.480;7.006;2023-05-01T08:20:34;100364.75;;;16.07;56.64
14269;BME280;7218;51.480;7.006;2023-05-01T08:23:01;100373.75;;;16.23;53.18
14269;BME280;7218;51.480;7.006;2023-05-01T08:25:29;100368.97;;;16.11;52.82
14269;BME280;7218;51.480;7.006;2023-05-01T08:27:56;100375.03;;;16.13;50.08
14269;BME280;7218;51.480;7.006;2023-05-01T08:30:23;100373.56;;;16.06;50.12
14269;BME280;7218;51.480;7.006;2023-05-01T08:32:52;100366.63;;;16.25;50.94
14269;BME280;7218;51.480;7.006;2023-05-01T08:35:19;100362.31;;;16.45;50.81
14269;BME280;7218;51.480;7.006;2023-05-01T08:37:46;100367.00;;;16.38;49.63
14269;BME280;7218;51.480;7.006;2023-05-01T08:40:13;100367.06;;;16.57;49.19
14269;BME280;7218;51.480;7.006;2023-05-01T08:42:41;100365.75;;;16.47;48.16
14269;BME280;7218;51.480;7.006;2023-05-01T08:45:09;100372.50;;;16.32;49.29
14269;BME280;7218;51.480;7.006;2023-05-01T08:47:38;100368.97;;;16.11;50.54
14269;BME280;7218;51.480;7.006;2023-05-01T08:50:08;100365.28;;;16.37;48.89
14269;BME280;7218;51.480;7.006;2023-05-01T08:52:39;100368.38;;;16.47;49.10
14269;BME280;7218;51.480;7.006;2023-05-01T08:55:07;100366.72;;;16.44;49.62
14269;BME280;7218;51.480;7.006;2023-05-01T08:57:37;100364.00;;;16.67;49.01
14269;BME280;7218;51.480;7.006;2023-05-01T09:00:10;100353.59;;;17.23;47.61
14269;BME280;7218;51.480;7.006;2023-05-01T09:02:40;100366.09;;;17.00;48.18
14269;BME280;7218;51.480;7.006;2023-05-01T09:05:08;100358.81;;;17.44;46.93
14269;BME280;7218;51.480;7.006;2023-05-01T09:07:35;100348.91;;;17.86;47.37
14269;BME280;7218;51.480;7.006;2023-05-01T09:10:03;100360.47;;;17.65;47.43
14269;BME280;7218;51.480;7.006;2023-05-01T09:12:30;100354.16;;;18.05;45.97
14269;BME280;7218;51.480;7.006;2023-05-01T09:15:01;100355.53;;;17.39;46.24
14269;BME280;7218;51.480;7.006;2023-05-01T09:17:31;100361.31;;;17.84;45.63
14269;BME280;7218;51.480;7.006;2023-05-01T09:19:58;100365.38;;;18.27;44.59
14269;BME280;7218;51.480;7.006;2023-05-01T09:22:26;100355.59;;;17.93;45.86
14269;BME280;7218;51.480;7.006;2023-05-01T09:24:55;100356.03;;;18.20;45.06
14269;BME280;7218;51.480;7.006;2023-05-01T09:27:22;100355.06;;;18.91;45.08
14269;BME280;7218;51.480;7.006;2023-05-01T09:29:49;100352.53;;;19.06;43.70
14269;BME280;7218;51.480;7.006;2023-05-01T09:32:17;100348.47;;;19.16;43.10
14269;BME280;7218;51.480;7.006;2023-05-01T09:34:46;100354.97;;;19.26;43.71
14269;BME280;7218;51.480;7.006;2023-05-01T09:37:24;100358.25;;;19.14;42.59
14269;BME280;7218;51.480;7.006;2023-05-01T09:40:03;100353.16;;;19.59;42.48
14269;BME280;7218;51.480;7.006;2023-05-01T09:42:31;100360.41;;;18.90;43.23
14269;BME280;7218;51.480;7.006;2023-05-01T09:44:57;100351.44;;;18.77;44.25
14269;BME280;7218;51.480;7.006;2023-05-01T09:47:24;100353.03;;;18.79;42.50
14269;BME280;7218;51.480;7.006;2023-05-01T09:49:56;100359.63;;;18.36;43.84
14269;BME280;7218;51.480;7.006;2023-05-01T09:52:24;100350.69;;;18.90;42.79
14269;BME280;7218;51.480;7.006;2023-05-01T09:55:10;100340.59;;;19.78;41.97
14269;BME280;7218;51.480;7.006;2023-05-01T09:57:38;100339.59;;;19.81;41.14
14269;BME280;7218;51.480;7.006;2023-05-01T10:00:05;100343.63;;;19.72;41.55
14269;BME280;7218;51.480;7.006;2023-05-01T10:02:33;100336.38;;;20.37;40.37
14269;BME280;7218;51.480;7.006;2023-05-01T10:05:01;100338.78;;;19.95;40.95
14269;BME280;7218;51.480;7.006;2023-05-01T10:07:28;100343.34;;;20.38;39.89
14269;BME280;7218;51.480;7.006;2023-05-01T10:09:54;100348.31;;;20.58;39.42
14269;BME280;7218;51.480;7.006;2023-05-01T10:12:22;100338.53;;;19.99;40.25
14269;BME280;7218;51.480;7.006;2023-05-01T10:14:50;100339.28;;;20.17;40.44
14269;BME280;7218;51.480;7.006;2023-05-01T10:17:17;100332.16;;;20.63;39.41
14269;BME280;7218;51.480;7.006;2023-05-01T10:19:44;100347.25;;;20.77;39.19
14269;BME280;7218;51.480;7.006;2023-05-01T10:22:13;100341.09;;;20.76;40.57
14269;BME280;7218;51.480;7.006;2023-05-01T10:24:41;100336.13;;;20.56;39.44
14269;BME280;7218;51.480;7.006;2023-05-01T10:27:11;100338.56;;;20.59;40.44
14269;BME280;7218;51.480;7.006;2023-05-01T10:29:39;100346.31;;;20.48;39.35
14269;BME280;7218;51.480;7.006;2023-05-01T10:32:06;100335.66;;;20.63;39.31
14269;BME280;7218;51.480;7.006;2023-05-01T10:34:34;100341.38;;;20.86;41.53
14269;BME280;7218;51.480;7.006;2023-05-01T10:37:10;100338.75;;;21.14;39.19
14269;BME280;7218;51.480;7.006;2023-05-01T10:39:40;100335.69;;;21.48;38.40
14269;BME280;7218;51.480;7.006;2023-05-01T10:42:07;100331.97;;;21.92;37.19
14269;BME280;7218;51.480;7.006;2023-05-01T10:44:36;100328.59;;;21.90;36.80
14269;BME280;7218;51.480;7.006;2023-05-01T10:50:06;100336.34;;;20.67;37.91
14269;BME280;7218;51.480;7.006;2023-05-01T10:55:35;100320.16;;;21.83;36.86
14269;BME280;7218;51.480;7.006;2023-05-01T10:58:02;100324.16;;;21.35;36.13
14269;BME280;7218;51.480;7.006;2023-05-01T11:00:29;100313.13;;;21.56;37.58
14269;BME280;7218;51.480;7.006;2023-05-01T11:06:04;100318.47;;;22.36;34.70
14269;BME280;7218;51.480;7.006;2023-05-01T11:08:31;100313.31;;;22.72;34.14
14269;BME280;7218;51.480;7.006;2023-05-01T11:11:44;100308.75;;;23.00;35.05
14269;BME280;7218;51.480;7.006;2023-05-01T11:14:12;100316.41;;;22.79;33.94
14269;BME280;7218;51.480;7.006;2023-05-01T11:16:47;100305.63;;;22.55;34.52
14269;BME280;7218;51.480;7.006;2023-05-01T11:19:45;100297.13;;;23.63;32.94
14269;BME280;7218;51.480;7.006;2023-05-01T11:22:15;100308.22;;;23.44;31.30
14269;BME280;7218;51.480;7.006;2023-05-01T11:24:42;100299.28;;;23.81;32.89
14269;BME280;7218;51.480;7.006;2023-05-01T11:27:14;100297.69;;;24.72;32.25
14269;BME280;7218;51.480;7.006;2023-05-01T11:29:43;100298.34;;;24.87;30.93
14269;BME280;7218;51.480;7.006;2023-05-01T11:32:15;100307.56;;;25.50;30.66
14269;BME280;7218;51.480;7.006;2023-05-01T11:34:43;100298.19;;;24.08;32.72
14269;BME280;7218;51.480;7.006;2023-05-01T11:37:09;100292.16;;;24.29;30.87
14269;BME280;7218;51.480;7.006;2023-05-01T11:39:36;100295.03;;;24.72;31.18
14269;BME280;7218;51.480;7.006;2023-05-01T11:42:06;100293.00;;;23.58;31.33
14269;BME280;7218;51.480;7.006;2023-05-01T11:44:34;100296.38;;;24.21;31.48
14269;BME280;7218;51.480;7.006;2023-05-01T11:47:01;100293.06;;;23.93;30.36
14269;BME280;7218;51.480;7.006;2023-05-01T11:49:28;100298.50;;;23.06;30.83
14269;BME280;7218;51.480;7.006;2023-05-01T11:51:58;100291.28;;;23.08;31.50
14269;BME280;7218;51.480;7.006;2023-05-01T11:54:25;100285.84;;;24.07;31.36
14269;BME280;7218;51.480;7.006;2023-05-01T11:56:56;100289.38;;;24.88;29.51
14269;BME280;7218;51.480;7.006;2023-05-01T11:59:24;100286.09;;;25.29;30.53
14269;BME280;7218;51.480;7.006;2023-05-01T12:01:52;100284.47;;;26.03;28.70
14269;BME280;7218;51.480;7.006;2023-05-01T12:04:23;100285.63;;;24.91;28.93
14269;BME280;7218;51.480;7.006;2023-05-01T12:06:50;100282.94;;;25.35;29.82
14269;BME280;7218;51.480;7.006;2023-05-01T12:09:18;100276.28;;;25.84;28.31
14269;BME280;7218;51.480;7.006;2023-05-01T12:11:45;100279.97;;;26.03;28.59
14269;BME280;7218;51.480;7.006;2023-05-01T12:14:13;100273.81;;;25.26;29.91
14269;BME280;7218;51.480;7.006;2023-05-01T12:16:40;100284.44;;;23.66;29.81
14269;BME280;7218;51.480;7.006;2023-05-01T12:19:09;100290.25;;;22.86;31.44
14269;BME280;7218;51.480;7.006;2023-05-01T12:21:37;100288.28;;;22.50;32.22
14269;BME280;7218;51.480;7.006;2023-05-01T12:24:06;100282.78;;;22.13;31.86
14269;BME280;7218;51.480;7.006;2023-05-01T12:26:33;100276.84;;;21.42;33.22
14269;BME280;7218;51.480;7.006;2023-05-01T12:29:01;100277.19;;;20.81;34.45
14269;BME280;7218;51.480;7.006;2023-05-01T12:31:28;100275.09;;;21.28;34.58
14269;BME280;7218;51.480;7.006;2023-05-01T12:33:55;100283.94;;;20.42;35.96
14269;BME280;7218;51.480;7.006;2023-05-01T12:36:24;100271.47;;;20.14;35.57
14269;BME280;7218;51.480;7.006;2023-05-01T12:38:56;100283.34;;;20.67;35.12
14269;BME280;7218;51.480;7.006;2023-05-01T12:41:31;100274.41;;;21.39;34.16
14269;BME280;7218;51.480;7.006;2023-05-01T12:43:58;100264.34;;;21.44;33.05
14269;BME280;7218;51.480;7.006;2023-05-01T12:46:25;100271.13;;;20.79;34.09
14269;BME280;7218;51.480;7.006;2023-05-01T12:48:52;100273.16;;;20.31;34.61
14269;BME280;7218;51.480;7.006;2023-05-01T12:51:19;100269.31;;;20.65;35.34
14269;BME280;7218;51.480;7.006;2023-05-01T12:53:47;100271.19;;;20.49;35.21
14269;BME280;7218;51.480;7.006;2023-05-01T12:56:20;100259.94;;;20.74;34.62
14269;BME280;7218;51.480;7.006;2023-05-01T12:58:48;100269.75;;;20.43;35.12
14269;BME280;7218;51.480;7.006;2023-05-01T13:01:23;100264.38;;;20.45;35.73
14269;BME280;7218;51.480;7.006;2023-05-01T13:03:50;100260.13;;;20.99;35.32
14269;BME280;7218;51.480;7.006;2023-05-01T13:06:16;100260.44;;;22.55;32.72
14269;BME280;7218;51.480;7.006;2023-05-01T13:08:43;100257.47;;;22.60;32.68
14269;BME280;7218;51.480;7.006;2023-05-01T13:11:13;100245.75;;;23.00;32.02
14269;BME280;7218;51.480;7.006;2023-05-01T13:13:42;100252.56;;;22.54;32.24
14269;BME280;7218;51.480;7.006;2023-05-01T13:16:10;100248.53;;;22.36;33.02
14269;BME280;7218;51.480;7.006;2023-05-01T13:18:44;100244.47;;;22.30;32.94